Lynn Creek, Mississippi
Current Conditions -  °F | °C
As of 1:45 PM on Sunday 23 Nov 2014 (Local Time) from KGTR Reporting Station
Broken Clouds Broken Clouds  
Wind Chill: 66°   Ceiling: 2100
Heat Index: 66°   Visibility: 7mi
Dew Point: 63°   Wind: 17mph
Humidity: 88%   Direction: 180°S
Pressure: 29.45"   Gusts: 23mph
Location:  33.2136°N, 88.5275°W
Report Text: KGTR 231945Z 18015G20KT 7SM BKN021 BKN027 19/17 A2945
Loading
Personal Weather Stations






























Interactive Weather Map New forecast layout! Learn more

10-Day Weather Forecast

Advertisements
Track Severe Weather on mobile